Freetown, New York
Current Conditions -  °F | °C
As of 8:55 PM on Monday 24 Nov 2014 (Local Time) from KN03 Reporting Station
Scattered Clouds Scattered Clouds  
Wind Chill: 57°   Ceiling: Unl
Heat Index: 57°   Visibility: 10mi
Dew Point: 50°   Wind: 3mph
Humidity: 77%   Direction: 240°WSW
Pressure: 29.58"   Gusts: NA
Location:  42.4596°N, 76.0658°W
Report Text: KN03 250155Z AUTO 24003KT 10SM SCT090 14/10 A2958 RMK AO2
Loading
Personal Weather Stations






























Interactive Weather Map New forecast layout! Learn more

10-Day Weather Forecast

Advertisements
Track Severe Weather on mobile